Watertown, WI

12:41 PM CDT on October 17, 2017 (GMT -0500)
Watertown Municipal

Weather History for KRYV - December, 2013

Change the Weather History Date:

Wednesday, December 25, 2013

  Actual Average Record
Temperature  
Mean Temperature 16 °F -  
Max Temperature 22 °F 25 °F 57 °F (1982)
Min Temperature 10 °F 10 °F -22 °F (1983)
Degree Days  
Heating Degree Days 49    
Moisture  
Dew Point 16 °F    
Average Humidity 88    
Maximum Humidity 92    
Minimum Humidity 83    
Precipitation  
Precipitation 0.01 in - - ()
Sea Level Pressure  
Sea Level Pressure 30.12 in    
Wind  
Wind Speed 8 mph (SW)    
Max Wind Speed 13 mph    
Max Gust Speed 17 mph    
Visibility 6 miles    
Events Snow    
Averages and records for this station are not official NWS values.
T = Trace of Precipitation, MM = Missing Value Source: NWS Daily Summary

Daily Weather History Graph

Daily Weather History Graph

Search for Another Location

Airport or City:

Trip Planner

Search our weather history database for the weather conditions in past years. The results will help you decide how hot, cold, wet, or windy it might be!

Date:

Astronomy

Dec. 25, 2013 Rise Set
Actual Time 7:25 AM CST 4:25 PM CST
Civil Twilight 6:52 AM CST 4:57 PM CST
Nautical Twilight 6:16 AM CST 5:33 PM CST
Astronomical Twilight 5:42 AM CST 6:08 PM CST
Moon No Moon Rise 11:37 AM CST (12/25)
Length of Visible Light 10h 04m
Length of Day
8h 59m
Waning Gibbous, 48% of the Moon is Illuminated
Dec 25
Waning Gibbous
Jan 1
New
Jan 7
First Quarter
Jan 15
Full
Jan 23
Last Quarter

Hourly Weather History & Observations

Time (CST) Temp. Windchill Dew Point Humidity Pressure Visibility Wind Dir Wind Speed Gust Speed Precip Events Conditions
12:15 AM 10.8 °F 0.0 °F 7.7 °F 87% 30.25 in 10.0 mi SSE 6.9 mph - N/A   Overcast
12:35 AM 11.5 °F 2.1 °F 8.4 °F 87% 30.24 in 10.0 mi SSE 5.8 mph - N/A   Overcast
12:55 AM 12.2 °F 2.9 °F 9.0 °F 87% 30.23 in 10.0 mi South 5.8 mph - N/A   Overcast
1:15 AM 12.9 °F 2.6 °F 9.5 °F 86% 30.23 in 10.0 mi South 6.9 mph - N/A   Overcast
1:35 AM 14.0 °F 1.2 °F 10.9 °F 88% 30.22 in 7.0 mi South 10.4 mph - N/A Snow Light Snow
1:55 AM 14.7 °F 2.1 °F 11.3 °F 86% 30.21 in 7.0 mi South 10.4 mph - N/A Snow Light Snow
2:15 AM 14.9 °F 0.9 °F 11.7 °F 87% 30.20 in 5.0 mi South 12.7 mph 17.3 mph N/A Snow Light Snow
2:35 AM 15.3 °F 2.0 °F 12.0 °F 87% 30.19 in 4.0 mi South 11.5 mph 17.3 mph N/A Snow Light Snow
2:55 AM 15.6 °F 2.5 °F 12.2 °F 86% 30.19 in 4.0 mi South 11.5 mph 17.3 mph N/A Snow Light Snow
3:15 AM 15.6 °F 3.2 °F 12.6 °F 88% 30.19 in 3.0 mi South 10.4 mph - N/A Snow Light Snow
3:35 AM 15.8 °F 2.7 °F 13.1 °F 89% 30.18 in 2.5 mi South 11.5 mph 17.3 mph N/A Snow Light Snow
3:55 AM 15.8 °F 5.1 °F 13.1 °F 89% 30.17 in 2.5 mi South 8.1 mph - N/A Snow Light Snow
4:15 AM 15.8 °F 2.7 °F 13.1 °F 89% 30.17 in 4.0 mi South 11.5 mph - N/A Snow Light Snow
4:35 AM 15.8 °F 5.1 °F 13.1 °F 89% 30.16 in 3.0 mi SSW 8.1 mph - N/A Snow Light Snow
4:55 AM 15.8 °F 5.1 °F 13.1 °F 89% 30.16 in 7.0 mi SSW 8.1 mph - N/A Snow Light Snow
5:15 AM 16.5 °F 6.0 °F 13.3 °F 87% 30.16 in 10.0 mi SSW 8.1 mph - N/A   Overcast
5:35 AM 16.7 °F 6.2 °F 13.1 °F 86% 30.16 in 10.0 mi SSW 8.1 mph - N/A   Overcast
5:55 AM 16.7 °F 4.5 °F 13.5 °F 87% 30.15 in 10.0 mi SSW 10.4 mph - N/A   Overcast
6:15 AM 17.1 °F 4.3 °F 13.5 °F 86% 30.15 in 10.0 mi SSW 11.5 mph - N/A   Overcast
6:35 AM 17.2 °F 6.0 °F 13.5 °F 85% 30.15 in 10.0 mi SSW 9.2 mph - N/A   Overcast
6:55 AM 17.2 °F 6.0 °F 13.6 °F 86% 30.15 in 10.0 mi SSW 9.2 mph - N/A   Overcast
7:15 AM 17.6 °F 6.4 °F 13.8 °F 85% 30.15 in 10.0 mi SW 9.2 mph - N/A   Overcast
7:35 AM 17.6 °F 5.7 °F 14.0 °F 86% 30.15 in 10.0 mi SW 10.4 mph - N/A   Overcast
7:55 AM 18.0 °F 7.7 °F 14.2 °F 85% 30.15 in 10.0 mi SW 8.1 mph - N/A   Overcast
8:15 AM 18.1 °F 7.1 °F 14.4 °F 85% 30.16 in 10.0 mi SW 9.2 mph - N/A   Overcast
8:35 AM 18.3 °F 8.2 °F 14.7 °F 86% 30.15 in 7.0 mi SW 8.1 mph - N/A   Overcast
8:55 AM 18.5 °F 7.5 °F 14.9 °F 86% 30.16 in 5.0 mi SW 9.2 mph - N/A   Overcast
9:15 AM 18.5 °F 7.5 °F 14.9 °F 86% 30.15 in 5.0 mi SW 9.2 mph - N/A   Overcast
9:35 AM 18.5 °F 8.4 °F 14.9 °F 86% 30.15 in 5.0 mi WSW 8.1 mph - N/A   Overcast
9:55 AM 18.7 °F 8.6 °F 14.7 °F 85% 30.15 in 4.0 mi SW 8.1 mph - N/A   Overcast
10:15 AM 19.0 °F 8.2 °F 15.1 °F 85% 30.16 in 4.0 mi WSW 9.2 mph - N/A   Overcast
10:35 AM 19.0 °F 7.5 °F 14.9 °F 84% 30.15 in 4.0 mi WSW 10.4 mph 16.1 mph N/A Snow Light Snow
10:55 AM 19.0 °F 7.5 °F 14.9 °F 84% 30.14 in 3.0 mi SW 10.4 mph - N/A Snow Light Snow
11:15 AM 19.4 °F 9.5 °F 15.1 °F 83% 30.13 in 2.5 mi SW 8.1 mph - N/A Snow Light Snow
11:35 AM 19.4 °F 7.9 °F 14.9 °F 83% 30.13 in 7.0 mi SW 10.4 mph 16.1 mph N/A   Overcast
11:55 AM 19.8 °F 9.1 °F 15.3 °F 83% 30.13 in 7.0 mi SW 9.2 mph - N/A   Overcast
12:15 PM 19.8 °F 7.7 °F 15.3 °F 83% 30.12 in 7.0 mi SW 11.5 mph - N/A   Overcast
12:35 PM 20.1 °F 8.8 °F 15.6 °F 83% 30.11 in 7.0 mi SW 10.4 mph - N/A   Overcast
12:55 PM 20.1 °F 8.8 °F 16.0 °F 84% 30.10 in 4.0 mi SW 10.4 mph - N/A   Overcast
1:15 PM 20.5 °F 10.0 °F 16.7 °F 85% 30.09 in 2.0 mi SSW 9.2 mph - N/A Snow Light Snow
1:35 PM 20.3 °F 10.6 °F 17.2 °F 88% 30.09 in 1.5 mi SSW 8.1 mph - N/A Snow Light Snow
1:55 PM 20.7 °F 11.9 °F 17.6 °F 88% 30.08 in 1.2 mi SSW 6.9 mph - N/A Snow Light Snow
2:15 PM 20.8 °F 11.2 °F 17.6 °F 87% 30.08 in 1.8 mi SW 8.1 mph - N/A Snow Light Snow
2:35 PM 21.0 °F 11.4 °F 17.6 °F 87% 30.09 in 2.5 mi SW 8.1 mph - N/A Snow Light Snow
2:55 PM 21.0 °F 10.6 °F 18.0 °F 88% 30.08 in 2.0 mi SW 9.2 mph - N/A Snow Light Snow
3:15 PM 21.0 °F 11.4 °F 18.3 °F 89% 30.09 in 2.0 mi SW 8.1 mph - N/A Snow Light Snow
3:35 PM 21.2 °F 11.7 °F 18.5 °F 89% 30.08 in 1.5 mi SSW 8.1 mph - N/A Snow Light Snow
3:55 PM 21.0 °F 12.4 °F 18.7 °F 91% 30.08 in 1.5 mi SW 6.9 mph - N/A Snow Light Snow
4:15 PM 21.0 °F 12.4 °F 18.5 °F 90% 30.08 in 1.8 mi SW 6.9 mph - N/A Snow Light Snow
4:35 PM 21.0 °F 13.4 °F 18.9 °F 91% 30.08 in 2.0 mi SW 5.8 mph - 0.01 in Snow Light Snow
4:55 PM 21.0 °F 11.4 °F 19.0 °F 92% 30.08 in 2.5 mi SW 8.1 mph - 0.01 in Snow Light Snow
5:15 PM 21.0 °F 12.4 °F 18.9 °F 91% 30.07 in 4.0 mi SSW 6.9 mph - N/A Snow Light Snow
5:35 PM 20.5 °F 12.8 °F 18.3 °F 91% 30.07 in 5.0 mi SW 5.8 mph - N/A Snow Light Snow
5:55 PM 20.1 °F 12.3 °F 18.0 °F 91% 30.07 in 4.0 mi SSW 5.8 mph - N/A Snow Light Snow
6:15 PM 20.3 °F 12.5 °F 18.3 °F 92% 30.06 in 4.0 mi SW 5.8 mph - N/A Snow Light Snow
6:35 PM 20.8 °F 13.2 °F 18.5 °F 91% 30.06 in 5.0 mi SW 5.8 mph - N/A Snow Light Snow
6:55 PM 21.0 °F 13.4 °F 18.5 °F 90% 30.06 in 5.0 mi SW 5.8 mph - N/A Snow Light Snow
7:15 PM 21.0 °F 13.4 °F 18.7 °F 91% 30.06 in 7.0 mi SW 5.8 mph - N/A Snow Light Snow
7:35 PM 21.2 °F 13.6 °F 18.5 °F 89% 30.06 in 7.0 mi SW 5.8 mph - N/A   Overcast
7:55 PM 21.2 °F 12.6 °F 18.9 °F 91% 30.06 in 7.0 mi SW 6.9 mph - N/A   Overcast
8:15 PM 21.6 °F 14.0 °F 19.0 °F 90% 30.06 in 7.0 mi SW 5.8 mph - N/A   Overcast
8:35 PM 21.6 °F 14.0 °F 19.0 °F 90% 30.05 in 7.0 mi SW 5.8 mph - N/A   Overcast
8:55 PM 21.6 °F 14.0 °F 19.0 °F 90% 30.05 in 7.0 mi SW 5.8 mph - N/A   Overcast
9:15 PM 21.6 °F 15.3 °F 19.2 °F 91% 30.04 in 7.0 mi SW 4.6 mph - N/A   Overcast
9:35 PM 21.7 °F 15.5 °F 19.2 °F 90% 30.04 in 7.0 mi SW 4.6 mph - N/A   Overcast
9:55 PM 21.7 °F 14.3 °F 19.4 °F 91% 30.04 in 7.0 mi SW 5.8 mph - N/A   Overcast
10:15 PM 22.1 °F 13.7 °F 19.4 °F 89% 30.03 in 7.0 mi SW 6.9 mph - N/A   Overcast
10:35 PM 22.1 °F 13.7 °F 19.8 °F 91% 30.04 in 7.0 mi WSW 6.9 mph - N/A   Overcast
10:55 PM 22.5 °F 14.1 °F 19.9 °F 90% 30.04 in 7.0 mi WSW 6.9 mph - N/A Snow Light Snow
11:15 PM 22.6 °F 14.3 °F 19.9 °F 89% 30.04 in 7.0 mi West 6.9 mph - N/A Snow Light Snow
11:35 PM 22.6 °F 14.3 °F 19.9 °F 89% 30.04 in 7.0 mi West 6.9 mph - N/A Snow Light Snow
11:55 PM 22.6 °F 11.9 °F 19.6 °F 88% 30.04 in 7.0 mi WNW 10.4 mph - N/A   Overcast